Time;durP1;ratioP1;P1;durP2;ratioP2;P2;SDS_P1;SDS_P2;PMS_P1;PMS_P2;Temp;Humidity;BMP_temperature;BMP_pressure;BME280_temperature;BME280_humidity;BME280_pressure;Samples;Min_cycle;Max_cycle;Signal;HPM_P1;HPM_P2
2022/05/15 00:01:15;;;;;;;5.18;2.90;;;;;;;17.12;81.11;63768.03;4937779;29;20251;-74
2022/05/15 00:03:42;;;;;;;3.08;2.83;;;;;;;17.09;83.61;63764.91;4944112;29;20219;-74
2022/05/15 00:06:09;;;;;;;6.10;3.20;;;;;;;16.97;85.83;63754.47;4970652;28;20227;-75
2022/05/15 00:08:38;;;;;;;3.65;3.35;;;;;;;16.83;88.08;63739.91;5005446;28;20211;-74
2022/05/15 00:11:08;;;;;;;3.80;3.08;;;;;;;16.75;88.99;63731.59;5022198;28;20258;-75
2022/05/15 00:13:35;;;;;;;6.03;3.42;;;;;;;16.61;89.58;63712.41;5023000;28;20225;-74
2022/05/15 00:16:02;;;;;;;3.25;3.05;;;;;;;16.51;89.90;63706.59;5006677;28;20258;-75
2022/05/15 00:18:29;;;;;;;3.22;3.03;;;;;;;16.45;89.76;63698.28;5008240;28;20217;-75
2022/05/15 00:20:56;;;;;;;3.83;3.10;;;;;;;16.36;91.20;63691.50;5023758;28;20390;-74
2022/05/15 00:23:24;;;;;;;3.33;3.03;;;;;;;16.20;91.28;63674.88;5019559;28;20206;-74
2022/05/15 00:25:52;;;;;;;3.50;3.20;;;;;;;16.14;91.31;63666.56;5019065;28;20222;-75
2022/05/15 00:28:20;;;;;;;3.17;2.97;;;;;;;16.01;91.66;63649.97;5014113;28;20229;-75
2022/05/15 00:30:47;;;;;;;3.75;3.45;;;;;;;15.91;92.77;63644.72;5024119;28;20218;-75
2022/05/15 00:33:15;;;;;;;6.65;3.90;;;;;;;15.83;93.23;63631.78;5018726;28;20496;-74
2022/05/15 00:35:42;;;;;;;3.70;3.20;;;;;;;15.76;92.96;63627.06;5024343;28;20225;-75
2022/05/15 00:38:11;;;;;;;3.17;2.97;;;;;;;15.72;93.20;63625.47;5021164;28;20202;-75
2022/05/15 00:40:41;;;;;;;3.95;3.33;;;;;;;15.76;94.39;63626.53;5023905;28;20226;-75
2022/05/15 00:43:11;;;;;;;3.40;3.10;;;;;;;15.66;92.43;63616.13;5020017;28;20247;-74
2022/05/15 00:45:39;;;;;;;4.05;3.65;;;;;;;15.59;92.33;63611.94;5020720;28;20223;-75
2022/05/15 00:48:06;;;;;;;4.07;3.55;;;;;;;15.51;90.44;63601.06;5023480;28;20414;-74
2022/05/15 00:50:37;;;;;;;3.53;3.20;;;;;;;15.55;90.36;63605.22;5020253;28;20225;-76
2022/05/15 00:53:08;;;;;;;4.53;3.30;;;;;;;15.60;89.19;63610.41;5022413;28;20565;-74
2022/05/15 00:55:40;;;;;;;7.38;3.45;;;;;;;15.59;89.86;63609.38;5021971;28;20226;-75
2022/05/15 00:58:18;;;;;;;3.13;2.92;;;;;;;15.65;89.59;63615.09;5023978;28;20187;-74
2022/05/15 01:00:46;;;;;;;3.35;3.15;;;;;;;15.68;88.09;63621.31;5019502;28;20222;-74
2022/05/15 01:03:15;;;;;;;4.07;3.58;;;;;;;15.69;87.18;63619.78;5021841;28;20269;-73
2022/05/15 01:05:45;;;;;;;6.18;3.35;;;;;;;15.71;86.20;63623.91;5016724;28;20244;-74
2022/05/15 01:08:12;;;;;;;6.75;3.50;;;;;;;15.72;86.15;63619.81;5024028;28;20206;-74
2022/05/15 01:10:43;;;;;;;4.53;3.15;;;;;;;15.74;86.79;63624.97;5025990;28;20228;-74
2022/05/15 01:13:11;;;;;;;3.35;3.15;;;;;;;15.78;85.57;63629.13;5028525;28;20223;-73
2022/05/15 01:15:40;;;;;;;4.72;3.67;;;;;;;15.84;85.49;63635.38;5031369;28;20226;-74
2022/05/15 01:18:09;;;;;;;3.25;3.00;;;;;;;15.79;86.70;63630.16;5028370;28;20205;-76
2022/05/15 01:20:37;;;;;;;4.03;3.63;;;;;;;15.76;86.38;63629.63;5005012;28;20554;-74
2022/05/15 01:23:06;;;;;;;9.80;3.15;;;;;;;15.78;86.36;63629.13;5017412;28;20403;-74
2022/05/15 01:25:35;;;;;;;3.00;2.80;;;;;;;15.78;87.00;63628.63;5024005;28;20229;-75
2022/05/15 01:28:05;;;;;;;4.07;3.20;;;;;;;15.86;86.23;63636.91;5018962;28;20195;-75
2022/05/15 01:30:33;;;;;;;5.25;3.05;;;;;;;15.88;85.03;63636.97;5020656;28;20230;-73
2022/05/15 01:32:59;;;;;;;4.38;3.30;;;;;;;15.85;84.58;63638.47;5023242;28;20256;-74
2022/05/15 01:35:26;;;;;;;7.07;3.33;;;;;;;15.78;85.25;63628.63;5023402;28;20522;-74
2022/05/15 01:37:53;;;;;;;3.33;2.92;;;;;;;15.77;85.36;63630.16;5015753;28;20225;-74
2022/05/15 01:40:22;;;;;;;3.05;2.83;;;;;;;15.79;85.80;63632.75;5022247;28;20476;-73
2022/05/15 01:42:49;;;;;;;5.60;3.83;;;;;;;15.77;85.40;63627.59;5022760;28;20206;-74
2022/05/15 01:45:16;;;;;;;4.13;3.30;;;;;;;15.78;85.22;63631.19;5021683;28;20228;-74
2022/05/15 01:47:43;;;;;;;3.10;2.90;;;;;;;15.77;85.14;63625.00;5003319;28;20198;-74
2022/05/15 01:50:12;;;;;;;4.30;3.15;;;;;;;15.76;84.24;63626.53;5017296;28;20222;-75
2022/05/15 01:52:39;;;;;;;5.13;3.55;;;;;;;15.82;83.81;63625.59;5023183;28;20230;-74
2022/05/15 01:55:07;;;;;;;3.15;2.95;;;;;;;15.86;83.38;63639.50;5015141;28;20524;-75
2022/05/15 01:57:35;;;;;;;3.15;2.58;;;;;;;15.88;82.18;63639.00;5004339;28;20218;-74
2022/05/15 02:00:03;;;;;;;3.22;3.03;;;;;;;15.94;81.87;63638.06;5021302;28;20234;-75
2022/05/15 02:02:30;;;;;;;6.60;3.15;;;;;;;15.96;81.36;63649.91;5022501;28;20384;-75
2022/05/15 02:04:57;;;;;;;3.97;2.80;;;;;;;15.82;81.38;63630.75;5008919;28;20227;-75
2022/05/15 02:07:24;;;;;;;4.38;3.30;;;;;;;15.93;80.43;63641.63;5015293;28;20385;-74
2022/05/15 02:09:51;;;;;;;4.70;2.80;;;;;;;15.94;80.30;63640.13;5023125;28;20225;-74
2022/05/15 02:12:18;;;;;;;3.53;2.97;;;;;;;15.97;80.44;63643.22;5020936;28;20231;-75
2022/05/15 02:14:46;;;;;;;3.58;3.25;;;;;;;16.01;78.79;63658.19;5004984;28;20282;-75
2022/05/15 02:17:13;;;;;;;3.28;3.08;;;;;;;16.03;79.58;63657.69;5016172;28;20203;-74
2022/05/15 02:19:40;;;;;;;5.95;3.45;;;;;;;16.02;78.36;63656.13;5022366;28;20302;-74
2022/05/15 02:22:07;;;;;;;3.08;2.88;;;;;;;16.06;78.71;63658.25;5018585;28;20202;-75
2022/05/15 02:24:34;;;;;;;3.17;2.80;;;;;;;16.05;79.08;63661.81;5021584;28;20238;-74
2022/05/15 02:27:01;;;;;;;2.60;2.35;;;;;;;16.06;78.76;63658.25;5024542;28;20274;-75
2022/05/15 02:29:27;;;;;;;3.42;3.13;;;;;;;15.94;80.01;63645.78;5026331;28;20222;-75
2022/05/15 02:31:56;;;;;;;3.50;3.17;;;;;;;15.92;82.06;63640.59;5024412;28;20297;-75
2022/05/15 02:34:23;;;;;;;3.40;3.13;;;;;;;15.83;83.44;63631.78;5024215;28;20219;-75
2022/05/15 02:36:49;;;;;;;3.17;3.00;;;;;;;15.83;83.67;63631.78;5026132;28;20202;-74
2022/05/15 02:39:18;;;;;;;4.68;3.08;;;;;;;15.69;84.41;63616.69;5025312;28;20226;-74
2022/05/15 02:41:44;;;;;;;3.05;2.78;;;;;;;15.62;86.01;63609.41;5012288;28;20203;-74
2022/05/15 02:44:11;;;;;;;3.25;3.05;;;;;;;15.55;87.71;63604.72;5013529;28;20551;-75
2022/05/15 02:46:38;;;;;;;5.63;3.67;;;;;;;15.46;88.51;63601.00;5006553;28;20204;-74
2022/05/15 02:51:51;;;;;;;3.20;2.90;;;;;;;15.26;89.36;63577.63;5023221;28;20573;-74
2022/05/15 02:54:18;;;;;;;3.55;2.97;;;;;;;15.17;91.56;63567.75;5024782;28;20222;-75
2022/05/15 02:56:45;;;;;;;3.00;2.80;;;;;;;15.07;90.92;63557.88;5026096;28;20207;-74
2022/05/15 02:59:12;;;;;;;3.50;3.20;;;;;;;15.01;91.78;63551.66;5015073;28;20243;-75
2022/05/15 03:01:39;;;;;;;5.10;3.50;;;;;;;14.92;92.82;63537.16;5018999;28;20225;-74
2022/05/15 03:04:08;;;;;;;3.70;3.15;;;;;;;14.81;93.06;63525.72;5026695;28;20211;-75
2022/05/15 03:06:35;;;;;;;5.15;3.28;;;;;;;14.76;94.38;63523.63;5025256;28;20198;-74
2022/05/15 03:09:02;;;;;;;2.60;2.50;;;;;;;14.68;95.76;63515.31;5009897;28;20203;-74
2022/05/15 03:11:29;;;;;;;4.97;3.05;;;;;;;14.62;95.10;63509.09;5016797;28;20249;-75
2022/05/15 03:13:56;;;;;;;5.25;3.00;;;;;;;14.61;93.52;63508.06;5025178;28;20261;-74
2022/05/15 03:16:23;;;;;;;3.17;2.97;;;;;;;14.55;92.50;63503.84;5022971;28;20207;-74
2022/05/15 03:18:51;;;;;;;3.17;2.97;;;;;;;14.66;93.34;63507.59;5009508;28;20214;-75
2022/05/15 03:24:04;;;;;;;3.30;3.10;;;;;;;14.65;95.32;63509.13;5024188;28;20229;-75
2022/05/15 03:26:32;;;;;;;7.55;2.88;;;;;;;14.65;95.45;63514.75;5014350;28;20226;-74
2022/05/15 03:28:59;;;;;;;5.47;2.72;;;;;;;14.68;96.18;63517.88;5012674;28;20218;-74
2022/05/15 03:31:26;;;;;;;3.28;3.00;;;;;;;14.69;96.51;63515.84;5025542;28;20205;-75
2022/05/15 03:33:53;;;;;;;3.25;3.05;;;;;;;14.75;95.39;63522.59;5025805;28;20257;-74
2022/05/15 03:36:21;;;;;;;3.20;2.97;;;;;;;14.73;94.79;63520.53;5024482;28;20191;-75
2022/05/15 03:38:49;;;;;;;4.25;3.05;;;;;;;14.75;96.06;63520.00;5031282;28;20213;-76
2022/05/15 03:41:17;;;;;;;4.30;2.80;;;;;;;14.73;96.81;63515.38;5036409;28;20210;-75
2022/05/15 03:43:43;;;;;;;3.05;2.85;;;;;;;14.76;97.38;63523.63;5030179;28;20263;-76
2022/05/15 03:46:10;;;;;;;4.63;2.92;;;;;;;14.80;97.25;63524.69;5034050;28;20219;-75
2022/05/15 03:48:38;;;;;;;2.60;2.50;;;;;;;14.89;95.73;63534.06;5025826;28;20211;-76
2022/05/15 03:51:05;;;;;;;4.63;2.70;;;;;;;14.97;96.57;63550.59;5028906;28;20237;-75
2022/05/15 03:53:34;;;;;;;2.75;2.55;;;;;;;15.07;96.76;63555.31;5025047;28;20234;-75
2022/05/15 03:56:03;;;;;;;3.10;2.72;;;;;;;15.18;94.32;63561.09;5022854;28;20382;-75
2022/05/15 03:58:33;;;;;;;6.03;3.30;;;;;;;15.25;93.98;63570.94;5025229;28;20235;-75
2022/05/15 04:01:00;;;;;;;3.22;3.03;;;;;;;15.31;93.82;63582.81;5025289;28;20226;-75
2022/05/15 04:03:27;;;;;;;3.63;2.67;;;;;;;15.42;95.00;63591.19;5023846;28;20233;-75
2022/05/15 04:05:54;;;;;;;3.00;2.85;;;;;;;15.50;95.59;63600.03;5022460;28;20451;-75
2022/05/15 04:08:21;;;;;;;3.05;2.85;;;;;;;15.61;96.15;63611.47;5025290;28;20274;-75
2022/05/15 04:10:49;;;;;;;3.08;2.88;;;;;;;15.71;96.04;63619.28;5023612;28;20218;-75
2022/05/15 04:13:18;;;;;;;2.65;2.50;;;;;;;15.83;96.77;63634.34;5004923;28;20234;-76
2022/05/15 04:15:45;;;;;;;5.03;2.75;;;;;;;15.89;97.46;63638.00;5024827;28;20225;-75
2022/05/15 04:18:12;;;;;;;5.05;2.80;;;;;;;16.03;97.16;63657.69;5030591;28;20207;-76
2022/05/15 04:20:39;;;;;;;9.27;3.33;;;;;;;16.17;95.89;63666.59;5032908;28;20235;-76
2022/05/15 04:23:06;;;;;;;3.08;2.95;;;;;;;16.30;95.75;63682.69;5023201;28;20201;-75
2022/05/15 04:25:33;;;;;;;4.30;3.15;;;;;;;16.29;96.07;63681.13;5024678;28;20424;-76
2022/05/15 04:28:01;;;;;;;4.05;3.50;;;;;;;16.40;95.08;63695.13;5024311;28;20202;-76
2022/05/15 04:30:29;;;;;;;3.45;3.25;;;;;;;16.41;87.62;63694.13;5018245;28;20228;-76
2022/05/15 04:32:56;;;;;;;4.75;3.60;;;;;;;16.45;90.37;63692.63;5023265;28;20269;-75
2022/05/15 04:35:24;;;;;;;4.90;4.20;;;;;;;16.52;90.91;63705.59;5024287;28;20257;-75
2022/05/15 04:37:51;;;;;;;3.53;3.13;;;;;;;16.57;86.38;63712.84;5021631;28;20277;-75
2022/05/15 04:40:20;;;;;;;5.30;4.57;;;;;;;16.49;85.84;63699.38;5022159;28;20476;-76
2022/05/15 04:42:47;;;;;;;3.97;3.67;;;;;;;16.45;87.83;63695.19;5022103;28;20202;-75
2022/05/15 04:45:16;;;;;;;6.95;4.38;;;;;;;16.65;87.93;63718.59;5024399;28;20228;-75
2022/05/15 04:47:45;;;;;;;5.05;4.55;;;;;;;16.74;84.78;63722.84;5018510;28;20222;-75
2022/05/15 04:50:12;;;;;;;5.57;3.97;;;;;;;16.75;85.97;63724.41;5022421;28;20230;-76
2022/05/15 04:52:39;;;;;;;7.80;3.20;;;;;;;16.94;86.17;63746.22;5024302;28;20292;-75
2022/05/15 04:55:06;;;;;;;4.30;3.90;;;;;;;17.12;85.12;63768.03;5023675;28;20218;-75
2022/05/15 04:57:34;;;;;;;5.53;4.63;;;;;;;17.21;82.26;63779.97;5012902;28;20202;-76
2022/05/15 05:00:01;;;;;;;5.57;4.25;;;;;;;17.40;85.63;63794.09;5023676;28;20268;-76
2022/05/15 05:02:29;;;;;;;4.97;4.47;;;;;;;17.46;86.29;63808.09;5024495;28;20209;-76
2022/05/15 05:04:59;;;;;;;4.60;4.05;;;;;;;17.55;84.55;63811.78;5022949;28;20241;-74
2022/05/15 05:07:26;;;;;;;6.65;4.80;;;;;;;17.58;84.37;63815.44;5020487;28;20341;-76
2022/05/15 05:09:53;;;;;;;7.00;5.53;;;;;;;17.58;86.12;63815.44;5019904;28;20578;-76
2022/05/15 05:12:20;;;;;;;5.75;5.22;;;;;;;17.55;88.38;63812.28;5024261;28;20204;-76
2022/05/15 05:14:47;;;;;;;5.45;5.05;;;;;;;17.65;88.60;63822.72;5020463;28;20314;-75
2022/05/15 05:17:14;;;;;;;6.20;5.05;;;;;;;17.58;89.19;63812.84;5017083;28;20202;-75
2022/05/15 05:19:43;;;;;;;5.32;4.82;;;;;;;17.57;88.52;63816.97;5024132;28;20289;-76
2022/05/15 05:22:10;;;;;;;5.47;4.97;;;;;;;17.79;87.26;63834.19;5023859;28;20190;-76
2022/05/15 05:24:37;;;;;;;8.05;5.97;;;;;;;17.93;84.57;63854.44;5019921;28;20229;-76
2022/05/15 05:27:04;;;;;;;8.48;5.47;;;;;;;18.12;85.20;63871.16;5022827;28;20201;-75
2022/05/15 05:29:31;;;;;;;5.22;4.80;;;;;;;18.23;81.89;63880.03;5024978;28;20225;-75
2022/05/15 05:31:58;;;;;;;5.68;5.18;;;;;;;18.31;79.42;63891.47;5024638;28;20260;-76
2022/05/15 05:34:25;;;;;;;8.80;5.25;;;;;;;18.10;79.32;63871.66;5014877;28;20236;-75
2022/05/15 05:36:53;;;;;;;7.10;5.93;;;;;;;17.98;80.81;63859.66;5022572;28;20209;-75
2022/05/15 05:39:21;;;;;;;7.22;5.82;;;;;;;18.10;82.54;63871.66;5024907;28;20230;-74
2022/05/15 05:41:48;;;;;;;6.90;5.35;;;;;;;18.28;79.79;63885.75;5020113;28;20206;-74
2022/05/15 05:44:15;;;;;;;7.45;5.97;;;;;;;18.37;80.76;63897.19;5022367;28;20257;-75
2022/05/15 05:46:42;;;;;;;9.57;5.45;;;;;;;18.27;80.91;63886.78;5024967;28;20197;-75
2022/05/15 05:49:08;;;;;;;10.73;5.05;;;;;;;18.40;78.50;63900.88;5023832;28;20249;-76
2022/05/15 05:51:35;;;;;;;5.43;4.97;;;;;;;18.33;77.86;63890.44;5016014;28;20499;-76
2022/05/15 05:54:04;;;;;;;9.57;4.85;;;;;;;18.52;79.05;63909.75;5021167;28;20609;-75
2022/05/15 05:56:31;;;;;;;5.75;5.25;;;;;;;18.48;80.61;63908.69;5024776;28;20487;-76
2022/05/15 05:58:58;;;;;;;6.60;5.13;;;;;;;18.52;79.58;63912.84;5015251;28;20253;-77
2022/05/15 06:01:24;;;;;;;5.95;4.80;;;;;;;18.57;82.84;63920.13;5010272;28;20205;-76
2022/05/15 06:06:35;;;;;;;6.30;4.45;;;;;;;18.97;81.36;63959.22;5028099;28;20225;-74
2022/05/15 06:09:04;;;;;;;7.43;5.03;;;;;;;19.22;82.08;63985.81;5019752;28;20205;-75
2022/05/15 06:11:31;;;;;;;5.93;5.45;;;;;;;19.28;81.54;63991.53;5024359;28;20198;-75
2022/05/15 06:13:58;;;;;;;5.82;5.32;;;;;;;19.03;78.40;63965.47;5027984;28;20236;-76
2022/05/15 06:16:25;;;;;;;8.90;5.93;;;;;;;19.20;79.94;63980.63;5030088;28;20229;-76
2022/05/15 06:18:52;;;;;;;7.35;4.35;;;;;;;19.27;77.21;63991.03;5028801;28;20202;-75
2022/05/15 06:21:19;;;;;;;3.40;3.20;;;;;;;19.38;67.20;63999.41;5026512;28;20194;-77
2022/05/15 06:23:46;;;;;;;7.88;3.58;;;;;;;19.35;63.26;63996.81;5012496;28;20222;-78
2022/05/15 06:26:15;;;;;;;4.45;3.28;;;;;;;19.26;66.67;63992.03;5020067;28;20202;-78
2022/05/15 06:28:42;;;;;;;3.90;3.00;;;;;;;19.14;67.58;63980.03;5016502;28;20202;-76
2022/05/15 06:31:09;;;;;;;3.30;3.00;;;;;;;18.94;62.06;63956.63;5024014;28;20218;-76
2022/05/15 06:33:36;;;;;;;2.58;2.40;;;;;;;18.91;58.57;63950.91;5014365;28;20294;-75
2022/05/15 06:36:03;;;;;;;2.83;2.70;;;;;;;19.05;62.47;63965.50;5009406;28;20508;-77
2022/05/15 06:38:30;;;;;;;3.35;2.95;;;;;;;19.03;62.11;63968.59;5023435;28;20202;-78
2022/05/15 06:40:59;;;;;;;3.15;2.88;;;;;;;18.81;59.86;63942.56;5021396;28;20422;-78
2022/05/15 06:43:27;;;;;;;2.72;2.53;;;;;;;18.77;61.24;63936.31;5023173;28;20263;-75
2022/05/15 06:45:54;;;;;;;3.58;2.60;;;;;;;18.93;57.47;63953.00;5026922;28;20220;-76
2022/05/15 06:48:21;;;;;;;2.45;2.17;;;;;;;19.10;51.84;63970.19;5018776;28;20207;-76
2022/05/15 06:50:50;;;;;;;2.10;2.00;;;;;;;19.11;52.25;63974.34;5024620;28;20559;-77
2022/05/15 06:53:21;;;;;;;2.33;2.13;;;;;;;19.29;50.04;63987.94;5033351;28;20588;-78
2022/05/15 06:58:34;;;;;;;3.08;2.15;;;;;;;19.53;47.90;64012.47;4994181;28;20233;-76
2022/05/15 07:01:01;;;;;;;2.05;1.77;;;;;;;19.54;47.61;64016.63;5026918;28;20218;-76
2022/05/15 07:03:29;;;;;;;2.10;1.70;;;;;;;19.51;47.55;64010.91;5027358;28;20206;-75
2022/05/15 07:05:55;;;;;;;2.28;1.90;;;;;;;19.66;47.38;64030.66;5025529;28;20221;-76
2022/05/15 07:08:23;;;;;;;3.25;2.42;;;;;;;19.66;47.17;64028.59;5030569;28;20195;-78
2022/05/15 07:10:50;;;;;;;4.22;2.25;;;;;;;19.72;48.34;64034.88;5031179;28;20214;-77
2022/05/15 07:13:16;;;;;;;2.35;2.13;;;;;;;19.49;50.86;64013.47;4999739;28;20246;-76
2022/05/15 07:15:45;;;;;;;2.45;1.77;;;;;;;19.19;50.53;63982.16;5008815;28;20281;-77
2022/05/15 07:18:12;;;;;;;2.45;2.20;;;;;;;18.96;51.29;63956.13;5006995;28;20217;-77
2022/05/15 07:20:39;;;;;;;5.60;1.92;;;;;;;19.04;50.58;63966.50;5007797;28;20218;-76
2022/05/15 07:23:06;;;;;;;4.65;2.53;;;;;;;19.40;51.89;64009.25;5004875;28;20361;-75
2022/05/15 07:25:33;;;;;;;2.10;1.90;;;;;;;19.60;48.89;64027.00;5004979;28;20321;-74
2022/05/15 07:28:00;;;;;;;4.80;2.45;;;;;;;19.72;50.34;64034.34;5005094;28;20202;-76
2022/05/15 07:30:27;;;;;;;3.00;2.08;;;;;;;19.82;50.91;64047.88;5008371;28;20218;-77
2022/05/15 07:32:55;;;;;;;4.57;2.60;;;;;;;19.78;52.75;64045.75;5001763;28;20238;-77
2022/05/15 07:35:22;;;;;;;4.63;2.58;;;;;;;19.89;50.83;64052.06;5006589;28;20226;-75
2022/05/15 07:37:49;;;;;;;2.70;2.50;;;;;;;19.93;50.72;64054.19;5006277;28;20259;-75
2022/05/15 07:40:16;;;;;;;3.05;2.70;;;;;;;20.10;52.29;64082.28;5004536;28;20253;-76
2022/05/15 07:42:43;;;;;;;3.13;2.28;;;;;;;19.61;54.49;64025.97;5003706;28;20445;-76
2022/05/15 07:45:11;;;;;;;3.15;2.95;;;;;;;19.26;56.98;63987.41;5004841;28;20399;-76
2022/05/15 07:47:38;;;;;;;2.65;2.45;;;;;;;19.58;56.31;64022.84;5004585;28;20262;-77
2022/05/15 07:50:08;;;;;;;2.70;2.50;;;;;;;19.75;57.75;64038.00;5004813;28;20527;-76
2022/05/15 07:52:35;;;;;;;4.40;3.10;;;;;;;19.47;56.92;64013.97;5003991;28;20210;-76
2022/05/15 07:55:05;;;;;;;5.07;2.83;;;;;;;19.69;55.72;64033.81;5006583;28;20253;-76
2022/05/15 07:57:33;;;;;;;3.60;2.78;;;;;;;19.85;53.95;64050.47;5004719;28;20203;-76
2022/05/15 08:00:03;;;;;;;4.20;2.20;;;;;;;19.75;53.44;64040.06;5002639;28;20238;-76
2022/05/15 08:02:30;;;;;;;2.45;2.22;;;;;;;19.88;52.28;64056.22;5003689;28;20202;-76
2022/05/15 08:10:27;;;;;;;2.90;2.10;;;;;;;19.34;54.52;64000.41;5003118;28;20296;-78
2022/05/15 08:12:54;;;;;;;2.53;2.35;;;;;;;19.36;54.82;63997.84;5001258;28;20195;-76
2022/05/15 08:15:22;;;;;;;2.40;2.28;;;;;;;19.11;55.08;63971.22;5004945;28;20280;-77
2022/05/15 08:17:49;;;;;;;3.17;2.80;;;;;;;19.10;55.71;63975.38;4999408;28;20230;-76
2022/05/15 08:25:47;;;;;;;2.70;2.55;;;;;;;19.40;52.79;64006.66;5005153;28;20221;-76
2022/05/15 08:28:15;;;;;;;2.80;2.17;;;;;;;19.30;53.70;63996.22;4991638;28;20242;-76
2022/05/15 08:30:42;;;;;;;3.15;2.55;;;;;;;19.37;50.51;64001.47;4985693;28;20223;-77
2022/05/15 08:33:11;;;;;;;4.90;2.28;;;;;;;19.49;54.63;64013.47;4984850;28;20257;-76
2022/05/15 08:35:39;;;;;;;2.72;1.98;;;;;;;19.44;51.72;64011.38;4988283;28;20223;-77
2022/05/15 08:38:07;;;;;;;5.28;2.30;;;;;;;19.44;52.62;64006.19;4991233;28;20230;-76
2022/05/15 08:40:45;;;;;;;3.30;2.03;;;;;;;19.64;50.80;64029.09;4992209;28;20242;-75
2022/05/15 08:43:12;;;;;;;6.00;2.70;;;;;;;19.74;50.51;64036.44;5004094;28;20190;-77
2022/05/15 08:45:44;;;;;;;2.33;2.08;;;;;;;19.65;50.28;64029.63;5001704;28;20230;-76
2022/05/15 08:48:13;;;;;;;3.67;2.00;;;;;;;19.52;50.81;64021.75;5007043;28;20183;-75
2022/05/15 08:50:46;;;;;;;2.70;2.50;;;;;;;19.50;50.78;64012.44;5002085;28;20241;-76
2022/05/15 08:53:22;;;;;;;2.08;1.98;;;;;;;19.51;51.37;64018.66;5011432;28;20200;-77
2022/05/15 08:55:54;;;;;;;3.55;2.38;;;;;;;19.50;52.63;64014.50;5004338;28;20218;-76
2022/05/15 08:58:26;;;;;;;2.53;1.92;;;;;;;19.54;50.16;64023.84;5004411;28;20190;-76
2022/05/15 09:00:55;;;;;;;4.32;1.92;;;;;;;19.46;49.14;64012.91;5004655;28;20531;-76
2022/05/15 09:03:25;;;;;;;4.88;2.38;;;;;;;19.67;49.59;64031.72;5015888;28;20226;-76
2022/05/15 09:05:56;;;;;;;2.10;2.00;;;;;;;19.89;48.59;64057.25;5023242;28;20256;-76
2022/05/15 09:08:51;;;;;;;3.08;2.88;;;;;;;20.09;47.10;64080.69;5023552;28;20375;-75
2022/05/15 09:11:36;;;;;;;4.65;2.28;;;;;;;20.21;46.82;64088.59;5016503;28;20249;-76
2022/05/15 09:14:12;;;;;;;2.95;1.65;;;;;;;20.16;47.70;64080.25;5014150;28;20241;-75
2022/05/15 09:16:44;;;;;;;5.03;2.15;;;;;;;19.89;48.88;64052.06;5004178;28;20369;-76
2022/05/15 09:19:11;;;;;;;1.88;1.77;;;;;;;19.85;47.58;64053.59;5022917;28;20218;-76
2022/05/15 09:21:38;;;;;;;3.50;2.20;;;;;;;20.06;47.59;64069.81;4997990;28;20211;-76
2022/05/15 09:24:10;;;;;;;2.55;1.85;;;;;;;20.06;46.24;64072.94;4984336;28;20204;-77
2022/05/15 09:26:44;;;;;;;3.15;1.85;;;;;;;20.27;45.50;64099.50;4987782;28;20488;-76
2022/05/15 09:29:20;;;;;;;1.80;1.70;;;;;;;20.39;47.18;64109.44;4985570;28;20527;-78
2022/05/15 09:31:47;;;;;;;2.30;2.20;;;;;;;20.56;44.55;64122.53;5023510;28;20197;-76
2022/05/15 09:34:26;;;;;;;3.15;1.98;;;;;;;20.08;45.36;64077.06;5022879;28;20519;-77
2022/05/15 09:38:26;;;;;;;4.00;2.25;;;;;;;20.18;45.17;64090.09;4990462;28;20202;-76
2022/05/15 09:39:43;;;;;;;2.78;1.80;;;;;;;20.54;45.23;64122.50;4988364;28;20215;-76
2022/05/15 09:45:21;;;;;;;4.55;2.38;;;;;;;21.07;42.92;64177.84;4992140;28;20290;-76
2022/05/15 09:48:02;;;;;;;2.55;2.15;;;;;;;21.31;43.01;64202.41;5013924;28;20208;-76
2022/05/15 09:50:43;;;;;;;4.45;1.98;;;;;;;21.28;43.83;64199.78;5026722;28;20550;-77
2022/05/15 09:53:15;;;;;;;3.47;2.47;;;;;;;21.32;42.54;64200.84;5018904;28;20198;-76
2022/05/15 09:55:57;;;;;;;3.63;2.22;;;;;;;21.44;43.29;64215.97;4987554;28;20256;-77
2022/05/15 09:58:25;;;;;;;2.00;1.90;;;;;;;21.39;41.96;64208.69;4998728;28;20202;-77
2022/05/15 10:01:12;;;;;;;7.82;2.35;;;;;;;21.13;42.82;64178.94;5007809;28;20457;-76
2022/05/15 10:03:39;;;;;;;2.67;1.60;;;;;;;21.01;43.75;64171.06;4995290;28;20210;-77
2022/05/15 10:06:10;;;;;;;2.30;2.10;;;;;;;21.37;42.35;64206.59;5013783;28;20222;-77
2022/05/15 10:08:38;;;;;;;3.40;2.03;;;;;;;21.50;42.04;64224.84;5026343;28;20194;-76
2022/05/15 10:11:09;;;;;;;3.92;2.03;;;;;;;21.60;40.99;64235.28;5021985;28;20258;-78
2022/05/15 10:13:38;;;;;;;2.20;2.00;;;;;;;21.77;41.01;64253.06;4988409;28;20223;-76
2022/05/15 10:16:11;;;;;;;2.00;1.90;;;;;;;21.72;40.87;64245.25;5006748;28;20234;-76
2022/05/15 10:18:48;;;;;;;7.20;3.67;;;;;;;21.59;41.48;64229.06;5009202;28;20191;-76
2022/05/15 10:21:21;;;;;;;3.25;2.67;;;;;;;21.16;41.37;64184.13;5008133;28;20269;-77
2022/05/15 10:23:55;;;;;;;2.78;1.35;;;;;;;20.96;40.27;64166.38;5008703;28;20492;-80
2022/05/15 10:26:28;;;;;;;2.15;1.60;;;;;;;21.18;40.85;64194.53;5015516;28;20185;-80
2022/05/15 10:29:05;;;;;;;3.38;1.70;;;;;;;21.29;42.53;64200.84;5012240;28;20187;-79
2022/05/15 10:31:36;;;;;;;5.03;1.88;;;;;;;21.61;41.06;64233.75;4996119;28;20496;-79
2022/05/15 10:34:11;;;;;;;2.42;2.22;;;;;;;21.75;40.99;64248.38;5007519;28;20233;-77
2022/05/15 10:36:51;;;;;;;2.13;1.55;;;;;;;21.68;38.91;64238.47;5007893;28;20200;-78
2022/05/15 10:39:30;;;;;;;4.95;2.58;;;;;;;21.59;40.33;64226.47;5005459;28;20222;-78
2022/05/15 10:42:13;;;;;;;7.32;2.00;;;;;;;21.72;40.72;64248.34;4989768;28;20203;-78
2022/05/15 10:44:52;;;;;;;2.90;1.80;;;;;;;21.98;39.29;64269.31;5005468;28;20225;-79
2022/05/15 10:47:22;;;;;;;2.67;2.45;;;;;;;21.78;39.19;64251.50;5027491;28;20198;-78
2022/05/15 10:50:18;;;;;;;2.05;1.95;;;;;;;21.95;42.11;64266.19;4994959;28;20275;-77
2022/05/15 10:59:02;;;;;;;5.57;1.83;;;;;;;21.93;39.78;64267.19;4993917;28;20186;-79
2022/05/15 11:01:38;;;;;;;1.77;1.10;;;;;;;22.17;35.54;64294.88;4991450;28;20205;-80
2022/05/15 11:04:14;;;;;;;2.45;1.30;;;;;;;21.76;36.24;64249.41;4991194;28;20222;-78
2022/05/15 11:06:59;;;;;;;2.25;1.77;;;;;;;21.85;39.47;64258.84;4994872;28;20214;-79
2022/05/15 11:09:36;;;;;;;8.60;1.90;;;;;;;21.83;37.98;64259.34;5013167;28;20230;-79
2022/05/15 11:12:21;;;;;;;2.53;2.10;;;;;;;21.86;39.40;64259.34;5014047;28;20221;-79
2022/05/15 11:15:10;;;;;;;6.43;2.20;;;;;;;22.22;39.67;64294.91;5013579;28;20234;-79
2022/05/15 11:17:47;;;;;;;5.07;3.92;;;;;;;22.31;39.74;64306.38;5006166;28;20195;-79
2022/05/15 11:20:19;;;;;;;3.08;1.80;;;;;;;22.64;38.22;64340.91;5007659;28;20453;-79
2022/05/15 11:22:49;;;;;;;5.25;1.60;;;;;;;22.42;38.19;64318.41;5027002;28;20217;-79
2022/05/15 11:25:23;;;;;;;2.10;1.60;;;;;;;22.47;37.62;64325.69;5018157;28;20224;-81
2022/05/15 11:27:53;;;;;;;2.83;2.20;;;;;;;22.51;36.77;64333.00;5009630;28;20336;-79
2022/05/15 11:30:30;;;;;;;3.83;2.97;;;;;;;22.55;37.99;64331.50;5007920;28;20214;-81
2022/05/15 11:33:04;;;;;;;4.47;1.50;;;;;;;22.48;37.95;64324.16;5006790;28;20198;-78
2022/05/15 11:35:34;;;;;;;3.60;1.60;;;;;;;22.41;36.35;64317.38;5002617;28;20523;-80
2022/05/15 11:38:28;;;;;;;2.20;2.10;;;;;;;22.81;37.02;64356.59;5007660;28;20197;-77
2022/05/15 11:40:56;;;;;;;2.05;1.65;;;;;;;22.64;36.77;64338.31;4994669;28;20586;-78
2022/05/15 11:43:58;;;;;;;1.95;1.83;;;;;;;23.19;36.77;64395.28;5004952;28;20270;-77
2022/05/15 11:46:58;;;;;;;1.75;1.65;;;;;;;23.23;35.62;64399.50;4980025;28;20203;-79
2022/05/15 11:49:33;;;;;;;2.65;1.70;;;;;;;23.33;36.52;64409.97;4995757;28;20553;-78
2022/05/15 11:52:18;;;;;;;1.75;1.63;;;;;;;23.65;36.34;64446.03;5009590;28;20517;-80
2022/05/15 11:54:53;;;;;;;3.95;2.35;;;;;;;23.59;36.32;64440.28;5013779;28;20234;-79
2022/05/15 11:57:43;;;;;;;5.45;2.58;;;;;;;23.24;38.08;64403.66;4990745;28;20210;-78
2022/05/15 12:00:22;;;;;;;2.85;2.10;;;;;;;22.91;39.34;64371.72;5011341;28;20241;-77
2022/05/15 12:02:55;;;;;;;3.15;2.05;;;;;;;23.32;38.91;64414.09;5010777;28;20241;-78
2022/05/15 12:05:30;;;;;;;1.85;1.73;;;;;;;23.38;38.04;64420.38;5011694;28;20214;-78
2022/05/15 12:07:59;;;;;;;2.67;2.20;;;;;;;23.73;38.53;64457.53;5002888;28;20233;-78
2022/05/15 12:10:56;;;;;;;4.68;2.15;;;;;;;23.97;37.68;64477.44;5001939;28;20542;-78
2022/05/15 12:13:38;;;;;;;2.67;2.10;;;;;;;24.05;37.13;64487.91;5001801;28;20202;-79
2022/05/15 12:16:24;;;;;;;2.40;1.73;;;;;;;24.73;36.93;64561.72;5005136;28;20531;-78
2022/05/15 12:18:59;;;;;;;4.70;2.08;;;;;;;25.04;36.61;64593.66;5010119;28;20208;-77